KCQB

Chandler Regional Airport

Chandler, Oklahoma, USA
METAR KCQB 181455Z AUTO 19011KT 10SM CLR M04/M13 A3040 RMK AO2 T10371130
Observed Flight Rules
Jan-18 @ 14:55 UTC (20 minutes ago) Visual Flight Rules
Wind Visibility Clouds
190° at 11 knots 10 miles
  • Clear skies
Temperatures Readings
Current -4°C / 25°F
Dewpoint -13°C / 9°F
Humidity 50%
Altimeter 30.4" Hg
Pressure 1029 hPa
Elevation 300
METAR KCQB 181455Z AUTO 19011KT 10SM CLR M04/M13 A3040 RMK AO2 T10371130
Observed Flight Rules
Jan-18 @ 14:55 UTC
(20 minutes ago)
VFR
Wind Visibility
190° at 11 knots 10 miles
Clouds
  • Clear skies
Temperature Dewpoint
-4°C / 25°F -13°C / 9°F
Humidity Altimeter Pressure
50% 30.4" Hg 1029 hPa